^^
Station Historical Data
Daily Summary for January 12, 2017 Units:  Both    English   Metric
« Previous Day
Next Day »
Daily Weekly Monthly Yearly Custom
  High: Low: Average:
Temperature: 81.1 °F /  27.3 °C 65.3 °F /  18.5 °C 69.4 °F /  20.8 °C
Dew Point: 65.3 °F /  18.5 °C 59.7 °F /  15.4 °C 62.6 °F /  17 °C
Humidity: 91% 51% 80%
Wind Speed: 9.0mph /  14.5km/h - 2.2mph /  3.5km/h
Wind Gust: 16.0mph /  25.7km/h - -
Wind- - SE
Pressure: 29.76 in /  1007.7 hPa 29.60 in /  1002.3 hPa -
Precipitation: 0.28 in /  7.11 mm    
Historical Graphs
 
 
Tabular Data for January 12, 2017
Time Temperature Dew Point Pressure Wind Wind Speed Wind Gust Humidity Rainfall Rate (Hourly) solar Conditions
00:04 68.5 °F /  20.3 °C 63.1 °F /  17.3 °C 29.69in /  1005.3hPa SE 4.0mph /  6.4km/h 4.0mph /  6.4km/h 83% 0.02in /  0.51mm 0.0 W/m2
00:10 68.4 °F /  20.2 °C 63.3 °F /  17.4 °C 29.69in /  1005.3hPa ESE 2.9mph /  4.7km/h 3.0mph /  4.8km/h 84% 0.02in /  0.51mm 0.0 W/m2
00:16 68.2 °F /  20.1 °C 63.5 °F /  17.5 °C 29.69in /  1005.3hPa ENE 2.0mph /  3.2km/h 3.0mph /  4.8km/h 85% 0.02in /  0.51mm 0.0 W/m2
00:22 67.8 °F /  19.9 °C 63.1 °F /  17.3 °C 29.68in /  1005hPa ENE 0.9mph /  1.4km/h 3.0mph /  4.8km/h 85% 0.03in /  0.76mm 0.0 W/m2
00:28 67.5 °F /  19.7 °C 62.8 °F /  17.1 °C 29.68in /  1005hPa Calm   2.0mph /  3.2km/h 85% 0.03in /  0.76mm 0.0 W/m2
00:34 67.3 °F /  19.6 °C 63.0 °F /  17.2 °C 29.67in /  1004.6hPa Calm   3.0mph /  4.8km/h 86% 0.04in /  1.02mm 0.0 W/m2
00:40 66.9 °F /  19.4 °C 63.0 °F /  17.2 °C 29.66in /  1004.3hPa Calm   1.0mph /  1.6km/h 87% 0.04in /  1.02mm 0.0 W/m2
00:46 66.9 °F /  19.4 °C 63.0 °F /  17.2 °C 29.66in /  1004.3hPa Calm   1.0mph /  1.6km/h 87% 0.05in /  1.27mm 0.0 W/m2
00:52 66.7 °F /  19.3 °C 63.1 °F /  17.3 °C 29.66in /  1004.3hPa SE 0.9mph /  1.4km/h 3.0mph /  4.8km/h 88% 0.05in /  1.27mm 0.0 W/m2
00:58 66.6 °F /  19.2 °C 63.0 °F /  17.2 °C 29.66in /  1004.3hPa Calm   4.0mph /  6.4km/h 88% 0.04in /  1.02mm 0.0 W/m2
01:04 66.6 °F /  19.2 °C 63.1 °F /  17.3 °C 29.66in /  1004.3hPa ESE 2.9mph /  4.7km/h 4.0mph /  6.4km/h 89% 0.04in /  1.02mm 0.0 W/m2
01:10 66.4 °F /  19.1 °C 62.8 °F /  17.1 °C 29.65in /  1003.9hPa SE 2.0mph /  3.2km/h 5.0mph /  8km/h 88% 0.03in /  0.76mm 0.0 W/m2
01:16 66.2 °F /  19 °C 62.2 °F /  16.8 °C 29.65in /  1003.9hPa ESE 2.0mph /  3.2km/h 4.0mph /  6.4km/h 87% 0.02in /  0.51mm 0.0 W/m2
01:22 66.0 °F /  18.9 °C 62.4 °F /  16.9 °C 29.65in /  1003.9hPa Calm   4.0mph /  6.4km/h 88% 0.02in /  0.51mm 0.0 W/m2
01:28 66.0 °F /  18.9 °C 62.4 °F /  16.9 °C 29.65in /  1003.9hPa East 2.0mph /  3.2km/h 2.0mph /  3.2km/h 88% 0.01in /  0.25mm 0.0 W/m2
01:34 65.8 °F /  18.8 °C 61.9 °F /  16.6 °C 29.65in /  1003.9hPa SE 2.0mph /  3.2km/h 3.0mph /  4.8km/h 87% 0.01in /  0.25mm 0.0 W/m2
01:40 65.8 °F /  18.8 °C 62.2 °F /  16.8 °C 29.65in /  1003.9hPa SSE 0.9mph /  1.4km/h 3.0mph /  4.8km/h 88% 0.01in /  0.25mm 0.0 W/m2
01:46 66.0 °F /  18.9 °C 62.4 °F /  16.9 °C 29.65in /  1003.9hPa Calm   3.0mph /  4.8km/h 88% 0.00in /  0mm 0.0 W/m2
01:52 66.2 °F /  19 °C 62.6 °F /  17 °C 29.64in /  1003.6hPa SW 2.0mph /  3.2km/h 4.0mph /  6.4km/h 88% 0.00in /  0mm 0.0 W/m2
01:58 66.0 °F /  18.9 °C 62.4 °F /  16.9 °C 29.64in /  1003.6hPa WSW 2.0mph /  3.2km/h 5.0mph /  8km/h 88% 0.01in /  0.25mm 0.0 W/m2
02:04 66.0 °F /  18.9 °C 62.6 °F /  17 °C 29.63in /  1003.3hPa SSW 0.9mph /  1.4km/h 2.0mph /  3.2km/h 89% 0.01in /  0.25mm 0.0 W/m2
02:10 65.8 °F /  18.8 °C 62.4 °F /  16.9 °C 29.63in /  1003.3hPa Calm   2.0mph /  3.2km/h 89% 0.01in /  0.25mm 0.0 W/m2
02:16 65.7 °F /  18.7 °C 62.2 °F /  16.8 °C 29.62in /  1002.9hPa Calm   2.0mph /  3.2km/h 89% 0.01in /  0.25mm 0.0 W/m2
02:22 65.7 °F /  18.7 °C 62.2 °F /  16.8 °C 29.62in /  1002.9hPa SW 0.9mph /  1.4km/h 2.0mph /  3.2km/h 89% 0.01in /  0.25mm 0.0 W/m2
02:28 65.7 °F /  18.7 °C 62.2 °F /  16.8 °C 29.62in /  1002.9hPa SSW 2.9mph /  4.7km/h 3.0mph /  4.8km/h 89% 0.02in /  0.51mm 0.0 W/m2
02:34 65.5 °F /  18.6 °C 62.2 °F /  16.8 °C 29.62in /  1002.9hPa Calm   2.0mph /  3.2km/h 89% 0.02in /  0.51mm 0.0 W/m2
02:40 65.5 °F /  18.6 °C 62.2 °F /  16.8 °C 29.62in /  1002.9hPa Calm   2.0mph /  3.2km/h 89% 0.02in /  0.51mm 0.0 W/m2
02:46 65.5 °F /  18.6 °C 62.4 °F /  16.9 °C 29.61in /  1002.6hPa Calm   2.0mph /  3.2km/h 90% 0.02in /  0.51mm 0.0 W/m2
02:52 65.5 °F /  18.6 °C 62.2 °F /  16.8 °C 29.61in /  1002.6hPa Calm   2.0mph /  3.2km/h 89% 0.02in /  0.51mm 0.0 W/m2
02:58 65.5 °F /  18.6 °C 62.2 °F /  16.8 °C 29.61in /  1002.6hPa NE 2.0mph /  3.2km/h 2.0mph /  3.2km/h 89% 0.01in /  0.25mm 0.0 W/m2
03:04 65.5 °F /  18.6 °C 62.2 °F /  16.8 °C 29.61in /  1002.6hPa Calm     89% 0.01in /  0.25mm 0.0 W/m2
03:10 65.3 °F /  18.5 °C 62.1 °F /  16.7 °C 29.61in /  1002.6hPa Calm     89% 0.01in /  0.25mm 0.0 W/m2
03:16 65.3 °F /  18.5 °C 62.2 °F /  16.8 °C 29.60in /  1002.3hPa Calm     90% 0.01in /  0.25mm 0.0 W/m2
03:22 65.3 °F /  18.5 °C 62.2 °F /  16.8 °C 29.60in /  1002.3hPa SSW 2.0mph /  3.2km/h 5.0mph /  8km/h 90% 0.00in /  0mm 0.0 W/m2
03:28 65.3 °F /  18.5 °C 62.1 °F /  16.7 °C 29.61in /  1002.6hPa Calm   5.0mph /  8km/h 89% 0.00in /  0mm 0.0 W/m2
03:34 65.5 °F /  18.6 °C 61.9 °F /  16.6 °C 29.60in /  1002.3hPa SSW 2.9mph /  4.7km/h 4.0mph /  6.4km/h 88% 0.00in /  0mm 0.0 W/m2
03:40 65.7 °F /  18.7 °C 62.1 °F /  16.7 °C 29.61in /  1002.6hPa SW 2.9mph /  4.7km/h 5.0mph /  8km/h 88% 0.00in /  0mm 0.0 W/m2
03:46 65.8 °F /  18.8 °C 61.9 °F /  16.6 °C 29.61in /  1002.6hPa SSW 4.9mph /  7.9km/h 6.0mph /  9.7km/h 87% 0.00in /  0mm 0.0 W/m2
03:52 65.8 °F /  18.8 °C 62.2 °F /  16.8 °C 29.60in /  1002.3hPa ESE 4.0mph /  6.4km/h 5.0mph /  8km/h 88% 0.00in /  0mm 0.0 W/m2
03:58 65.8 °F /  18.8 °C 61.9 °F /  16.6 °C 29.60in /  1002.3hPa SE 2.9mph /  4.7km/h 6.0mph /  9.7km/h 87% 0.00in /  0mm 0.0 W/m2
04:04 65.8 °F /  18.8 °C 62.2 °F /  16.8 °C 29.60in /  1002.3hPa SE 0.9mph /  1.4km/h 6.0mph /  9.7km/h 88% 0.00in /  0mm 0.0 W/m2
04:10 65.8 °F /  18.8 °C 62.2 °F /  16.8 °C 29.60in /  1002.3hPa SE 2.9mph /  4.7km/h 5.0mph /  8km/h 88% 0.00in /  0mm 0.0 W/m2
04:16 65.7 °F /  18.7 °C 62.1 °F /  16.7 °C 29.60in /  1002.3hPa Calm   4.0mph /  6.4km/h 88% 0.00in /  0mm 0.0 W/m2
04:22 65.7 °F /  18.7 °C 62.1 °F /  16.7 °C 29.60in /  1002.3hPa SE 0.9mph /  1.4km/h 3.0mph /  4.8km/h 88% 0.00in /  0mm 0.0 W/m2
04:28 65.7 °F /  18.7 °C 62.1 °F /  16.7 °C 29.60in /  1002.3hPa Calm   5.0mph /  8km/h 88% 0.00in /  0mm 0.0 W/m2
04:34 65.7 °F /  18.7 °C 62.1 °F /  16.7 °C 29.60in /  1002.3hPa SSW 2.9mph /  4.7km/h 4.0mph /  6.4km/h 88% 0.00in /  0mm 0.0 W/m2
04:40 65.7 °F /  18.7 °C 62.1 °F /  16.7 °C 29.60in /  1002.3hPa Calm   4.0mph /  6.4km/h 88% 0.00in /  0mm 0.0 W/m2
04:46 65.7 °F /  18.7 °C 62.1 °F /  16.7 °C 29.61in /  1002.6hPa SSW 0.9mph /  1.4km/h 2.0mph /  3.2km/h 88% 0.00in /  0mm 0.0 W/m2
04:52 65.7 °F /  18.7 °C 61.7 °F /  16.5 °C 29.60in /  1002.3hPa South 4.0mph /  6.4km/h 6.0mph /  9.7km/h 87% 0.00in /  0mm 0.0 W/m2
04:58 65.7 °F /  18.7 °C 61.7 °F /  16.5 °C 29.60in /  1002.3hPa Calm   7.0mph /  11.3km/h 87% 0.00in /  0mm 0.0 W/m2
05:04 65.7 °F /  18.7 °C 61.7 °F /  16.5 °C 29.61in /  1002.6hPa Calm   2.0mph /  3.2km/h 87% 0.00in /  0mm 0.0 W/m2
05:10 65.5 °F /  18.6 °C 61.5 °F /  16.4 °C 29.61in /  1002.6hPa South 2.0mph /  3.2km/h 2.0mph /  3.2km/h 87% 0.00in /  0mm 0.0 W/m2
05:17 65.5 °F /  18.6 °C 61.9 °F /  16.6 °C 29.62in /  1002.9hPa Calm   3.0mph /  4.8km/h 88% 0.00in /  0mm 0.0 W/m2
05:22 65.5 °F /  18.6 °C 61.9 °F /  16.6 °C 29.62in /  1002.9hPa SE 4.0mph /  6.4km/h 4.0mph /  6.4km/h 88% 0.00in /  0mm 0.0 W/m2
05:28 65.7 °F /  18.7 °C 62.1 °F /  16.7 °C 29.62in /  1002.9hPa Calm   3.0mph /  4.8km/h 88% 0.00in /  0mm 0.0 W/m2
05:34 65.7 °F /  18.7 °C 62.1 °F /  16.7 °C 29.63in /  1003.3hPa SE 2.0mph /  3.2km/h 2.0mph /  3.2km/h 88% 0.00in /  0mm 0.0 W/m2
05:40 65.7 °F /  18.7 °C 62.1 °F /  16.7 °C 29.63in /  1003.3hPa Calm   4.0mph /  6.4km/h 88% 0.00in /  0mm 0.0 W/m2
05:46 65.7 °F /  18.7 °C 62.1 °F /  16.7 °C 29.63in /  1003.3hPa Calm   2.0mph /  3.2km/h 88% 0.00in /  0mm 0.0 W/m2
05:52 65.8 °F /  18.8 °C 62.2 °F /  16.8 °C 29.63in /  1003.3hPa ESE 2.0mph /  3.2km/h 3.0mph /  4.8km/h 88% 0.00in /  0mm 0.0 W/m2
05:58 65.8 °F /  18.8 °C 62.2 °F /  16.8 °C 29.63in /  1003.3hPa Calm   4.0mph /  6.4km/h 88% 0.00in /  0mm 0.0 W/m2
06:04 65.7 °F /  18.7 °C 61.7 °F /  16.5 °C 29.63in /  1003.3hPa SE 0.9mph /  1.4km/h 4.0mph /  6.4km/h 87% 0.00in /  0mm 0.0 W/m2
06:10 65.7 °F /  18.7 °C 61.7 °F /  16.5 °C 29.64in /  1003.6hPa Calm   1.0mph /  1.6km/h 87% 0.00in /  0mm 0.0 W/m2
06:16 65.7 °F /  18.7 °C 61.3 °F /  16.3 °C 29.64in /  1003.6hPa Calm   2.0mph /  3.2km/h 86% 0.00in /  0mm 0.0 W/m2
06:22 65.7 °F /  18.7 °C 61.3 °F /  16.3 °C 29.64in /  1003.6hPa Calm   2.0mph /  3.2km/h 86% 0.00in /  0mm 0.0 W/m2
06:28 65.8 °F /  18.8 °C 61.9 °F /  16.6 °C 29.64in /  1003.6hPa Calm     87% 0.00in /  0mm 0.0 W/m2
06:34 65.7 °F /  18.7 °C 61.7 °F /  16.5 °C 29.64in /  1003.6hPa Calm     87% 0.00in /  0mm 7.0 W/m2
06:40 65.7 °F /  18.7 °C 61.7 °F /  16.5 °C 29.64in /  1003.6hPa Calm     87% 0.00in /  0mm 9.0 W/m2
06:46 65.7 °F /  18.7 °C 61.7 °F /  16.5 °C 29.64in /  1003.6hPa West 0.9mph /  1.4km/h 2.0mph /  3.2km/h 87% 0.00in /  0mm 14.0 W/m2
06:52 65.8 °F /  18.8 °C 62.2 °F /  16.8 °C 29.65in /  1003.9hPa Calm     88% 0.00in /  0mm 25.0 W/m2
06:58 65.8 °F /  18.8 °C 62.2 °F /  16.8 °C 29.65in /  1003.9hPa NE 0.9mph /  1.4km/h 4.0mph /  6.4km/h 88% 0.00in /  0mm 30.0 W/m2
07:05 66.0 °F /  18.9 °C 62.4 °F /  16.9 °C 29.65in /  1003.9hPa Calm   1.0mph /  1.6km/h 88% 0.00in /  0mm 26.0 W/m2
07:10 66.0 °F /  18.9 °C 62.4 °F /  16.9 °C 29.66in /  1004.3hPa SSW 5.0mph /  8km/h 5.0mph /  8km/h 88% 0.00in /  0mm 35.0 W/m2
07:17 66.2 °F /  19 °C 62.2 °F /  16.8 °C 29.66in /  1004.3hPa Calm   3.0mph /  4.8km/h 87% 0.00in /  0mm 47.0 W/m2
07:22 66.4 °F /  19.1 °C 62.4 °F /  16.9 °C 29.66in /  1004.3hPa Calm     87% 0.00in /  0mm 47.0 W/m2
07:29 66.6 °F /  19.2 °C 62.6 °F /  17 °C 29.66in /  1004.3hPa SSW 0.9mph /  1.4km/h 1.0mph /  1.6km/h 87% 0.00in /  0mm 53.0 W/m2
07:34 66.6 °F /  19.2 °C 62.2 °F /  16.8 °C 29.66in /  1004.3hPa SSW 0.9mph /  1.4km/h 1.0mph /  1.6km/h 86% 0.00in /  0mm 67.0 W/m2
07:41 66.7 °F /  19.3 °C 62.4 °F /  16.9 °C 29.66in /  1004.3hPa Calm   1.0mph /  1.6km/h 86% 0.00in /  0mm 49.0 W/m2
07:47 66.7 °F /  19.3 °C 62.1 °F /  16.7 °C 29.67in /  1004.6hPa WSW 0.9mph /  1.4km/h 2.0mph /  3.2km/h 85% 0.00in /  0mm 35.0 W/m2
07:53 66.9 °F /  19.4 °C 62.2 °F /  16.8 °C 29.67in /  1004.6hPa SW 0.9mph /  1.4km/h 3.0mph /  4.8km/h 85% 0.00in /  0mm 37.0 W/m2
07:59 67.1 °F /  19.5 °C 62.1 °F /  16.7 °C 29.67in /  1004.6hPa South 0.9mph /  1.4km/h 7.0mph /  11.3km/h 84% 0.00in /  0mm 51.0 W/m2
08:05 67.3 °F /  19.6 °C 62.2 °F /  16.8 °C 29.67in /  1004.6hPa SSW 0.9mph /  1.4km/h 3.0mph /  4.8km/h 84% 0.00in /  0mm 69.0 W/m2
08:11 67.5 °F /  19.7 °C 62.8 °F /  17.1 °C 29.67in /  1004.6hPa Calm   2.0mph /  3.2km/h 85% 0.00in /  0mm 90.0 W/m2
08:17 67.5 °F /  19.7 °C 62.4 °F /  16.9 °C 29.68in /  1005hPa South 0.9mph /  1.4km/h 5.0mph /  8km/h 84% 0.00in /  0mm 91.0 W/m2
08:23 67.6 °F /  19.8 °C 62.6 °F /  17 °C 29.68in /  1005hPa Calm   2.0mph /  3.2km/h 84% 0.00in /  0mm 102.0 W/m2
08:29 67.6 °F /  19.8 °C 62.2 °F /  16.8 °C 29.68in /  1005hPa SW 4.0mph /  6.4km/h 6.0mph /  9.7km/h 83% 0.00in /  0mm 79.0 W/m2
08:35 67.8 °F /  19.9 °C 62.4 °F /  16.9 °C 29.68in /  1005hPa Calm   2.0mph /  3.2km/h 83% 0.00in /  0mm 98.0 W/m2
08:41 67.8 °F /  19.9 °C 62.4 °F /  16.9 °C 29.68in /  1005hPa Calm   3.0mph /  4.8km/h 83% 0.00in /  0mm 120.0 W/m2
08:47 68.2 °F /  20.1 °C 62.8 °F /  17.1 °C 29.68in /  1005hPa Calm   2.0mph /  3.2km/h 83% 0.00in /  0mm 146.0 W/m2
08:53 68.4 °F /  20.2 °C 62.6 °F /  17 °C 29.68in /  1005hPa Calm   7.0mph /  11.3km/h 82% 0.00in /  0mm 264.0 W/m2
08:59 68.7 °F /  20.4 °C 62.6 °F /  17 °C 29.68in /  1005hPa South 2.0mph /  3.2km/h 5.0mph /  8km/h 81% 0.00in /  0mm 176.0 W/m2
09:05 69.3 °F /  20.7 °C 62.8 °F /  17.1 °C 29.68in /  1005hPa Calm   4.0mph /  6.4km/h 80% 0.00in /  0mm 457.0 W/m2
09:11 69.6 °F /  20.9 °C 62.8 °F /  17.1 °C 29.68in /  1005hPa SW 0.9mph /  1.4km/h 7.0mph /  11.3km/h 79% 0.00in /  0mm 404.0 W/m2
09:17 70.5 °F /  21.4 °C 63.0 °F /  17.2 °C 29.68in /  1005hPa SSW 2.9mph /  4.7km/h 6.0mph /  9.7km/h 77% 0.00in /  0mm 636.0 W/m2
09:23 71.1 °F /  21.7 °C 62.8 °F /  17.1 °C 29.69in /  1005.3hPa South 2.9mph /  4.7km/h 6.0mph /  9.7km/h 75% 0.00in /  0mm 171.0 W/m2
09:29 71.2 °F /  21.8 °C 63.0 °F /  17.2 °C 29.69in /  1005.3hPa SSW 4.0mph /  6.4km/h 6.0mph /  9.7km/h 75% 0.00in /  0mm 146.0 W/m2
09:35 71.1 °F /  21.7 °C 62.8 °F /  17.1 °C 29.69in /  1005.3hPa SE 2.0mph /  3.2km/h 6.0mph /  9.7km/h 75% 0.00in /  0mm 156.0 W/m2
09:41 70.9 °F /  21.6 °C 62.6 °F /  17 °C 29.69in /  1005.3hPa SSW 4.0mph /  6.4km/h 4.0mph /  6.4km/h 75% 0.00in /  0mm 200.0 W/m2
09:47 70.9 °F /  21.6 °C 62.6 °F /  17 °C 29.69in /  1005.3hPa Calm   5.0mph /  8km/h 75% 0.00in /  0mm 246.0 W/m2
09:53 71.1 °F /  21.7 °C 62.4 °F /  16.9 °C 29.69in /  1005.3hPa South 6.0mph /  9.7km/h 6.0mph /  9.7km/h 74% 0.00in /  0mm 216.0 W/m2
09:59 71.2 °F /  21.8 °C 61.7 °F /  16.5 °C 29.69in /  1005.3hPa SE 0.9mph /  1.4km/h 5.0mph /  8km/h 72% 0.00in /  0mm 181.0 W/m2
10:05 71.8 °F /  22.1 °C 62.6 °F /  17 °C 29.69in /  1005.3hPa South 0.9mph /  1.4km/h 3.0mph /  4.8km/h 73% 0.00in /  0mm 209.0 W/m2
10:11 71.8 °F /  22.1 °C 62.6 °F /  17 °C 29.69in /  1005.3hPa SSE 4.0mph /  6.4km/h 5.0mph /  8km/h 73% 0.00in /  0mm 227.0 W/m2
10:17 72.0 °F /  22.2 °C 62.4 °F /  16.9 °C 29.69in /  1005.3hPa South 0.9mph /  1.4km/h 4.0mph /  6.4km/h 72% 0.00in /  0mm 250.0 W/m2
10:23 72.1 °F /  22.3 °C 62.2 °F /  16.8 °C 29.69in /  1005.3hPa SSE 4.0mph /  6.4km/h 4.0mph /  6.4km/h 71% 0.00in /  0mm 200.0 W/m2
10:29 72.1 °F /  22.3 °C 62.6 °F /  17 °C 29.69in /  1005.3hPa ESE 2.0mph /  3.2km/h 3.0mph /  4.8km/h 72% 0.00in /  0mm 183.0 W/m2
10:36 72.3 °F /  22.4 °C 61.5 °F /  16.4 °C 29.69in /  1005.3hPa SE 4.9mph /  7.9km/h 7.0mph /  11.3km/h 69% 0.00in /  0mm 225.0 W/m2
10:42 72.7 °F /  22.6 °C 61.9 °F /  16.6 °C 29.69in /  1005.3hPa ESE 0.9mph /  1.4km/h 4.0mph /  6.4km/h 69% 0.00in /  0mm 283.0 W/m2
10:48 72.9 °F /  22.7 °C 62.1 °F /  16.7 °C 29.70in /  1005.6hPa ESE 2.9mph /  4.7km/h 8.0mph /  12.9km/h 69% 0.00in /  0mm 346.0 W/m2
10:54 73.2 °F /  22.9 °C 61.5 °F /  16.4 °C 29.70in /  1005.6hPa ESE 6.9mph /  11.1km/h 7.0mph /  11.3km/h 67% 0.00in /  0mm 339.0 W/m2
11:00 73.6 °F /  23.1 °C 61.5 °F /  16.4 °C 29.70in /  1005.6hPa ENE 0.9mph /  1.4km/h 7.0mph /  11.3km/h 66% 0.00in /  0mm 570.0 W/m2
11:06 74.5 °F /  23.6 °C 61.9 °F /  16.6 °C 29.70in /  1005.6hPa ESE 4.9mph /  7.9km/h 8.0mph /  12.9km/h 65% 0.00in /  0mm 624.0 W/m2
11:12 75.2 °F /  24 °C 62.2 °F /  16.8 °C 29.69in /  1005.3hPa SSW 2.9mph /  4.7km/h 4.0mph /  6.4km/h 64% 0.00in /  0mm 577.0 W/m2
11:18 76.5 °F /  24.7 °C 62.4 °F /  16.9 °C 29.69in /  1005.3hPa SE 4.0mph /  6.4km/h 7.0mph /  11.3km/h 62% 0.00in /  0mm 1215.0 W/m2
11:24 77.5 °F /  25.3 °C 62.6 °F /  17 °C 29.69in /  1005.3hPa SSE 2.9mph /  4.7km/h 6.0mph /  9.7km/h 60% 0.00in /  0mm 1144.0 W/m2
11:30 78.3 °F /  25.7 °C 61.7 °F /  16.5 °C 29.69in /  1005.3hPa SSE 6.0mph /  9.7km/h 7.0mph /  11.3km/h 57% 0.00in /  0mm 1171.0 W/m2
11:36 79.0 °F /  26.1 °C 62.4 °F /  16.9 °C 29.69in /  1005.3hPa East 4.9mph /  7.9km/h 9.0mph /  14.5km/h 57% 0.00in /  0mm 1220.0 W/m2
11:42 79.5 °F /  26.4 °C 61.9 °F /  16.6 °C 29.68in /  1005hPa ESE 4.0mph /  6.4km/h 9.0mph /  14.5km/h 55% 0.00in /  0mm 1260.0 W/m2
11:49 80.2 °F /  26.8 °C 61.5 °F /  16.4 °C 29.68in /  1005hPa ESE 4.0mph /  6.4km/h 9.0mph /  14.5km/h 53% 0.00in /  0mm 1190.0 W/m2
11:55 81.1 °F /  27.3 °C 61.9 °F /  16.6 °C 29.68in /  1005hPa SE 4.0mph /  6.4km/h 8.0mph /  12.9km/h 52% 0.00in /  0mm 1204.0 W/m2
12:11 79.5 °F /  26.4 °C 60.8 °F /  16 °C 29.68in /  1005hPa North 4.0mph /  6.4km/h 4.0mph /  6.4km/h 53% 0.00in /  0mm 269.0 W/m2
12:17 79.0 °F /  26.1 °C 61.5 °F /  16.4 °C 29.67in /  1004.6hPa ENE 6.0mph /  9.7km/h 8.0mph /  12.9km/h 55% 0.00in /  0mm 417.0 W/m2
12:25 79.2 °F /  26.2 °C 61.2 °F /  16.2 °C 29.67in /  1004.6hPa ENE 0.9mph /  1.4km/h 9.0mph /  14.5km/h 54% 0.00in /  0mm 366.0 W/m2
12:34 79.3 °F /  26.3 °C 60.3 °F /  15.7 °C 29.67in /  1004.6hPa NE 8.1mph /  13km/h 9.0mph /  14.5km/h 52% 0.00in /  0mm 608.0 W/m2
12:41 79.5 °F /  26.4 °C 59.7 °F /  15.4 °C 29.67in /  1004.6hPa ESE 4.0mph /  6.4km/h 6.0mph /  9.7km/h 51% 0.00in /  0mm 868.0 W/m2
12:46 79.9 °F /  26.6 °C 60.1 °F /  15.6 °C 29.67in /  1004.6hPa East 6.9mph /  11.1km/h 9.0mph /  14.5km/h 51% 0.00in /  0mm 1034.0 W/m2
12:54 80.8 °F /  27.1 °C 61.0 °F /  16.1 °C 29.67in /  1004.6hPa SE 6.0mph /  9.7km/h 11.0mph /  17.7km/h 51% 0.00in /  0mm 160.0 W/m2
13:00 79.2 °F /  26.2 °C 62.1 °F /  16.7 °C 29.68in /  1005hPa ENE 6.0mph /  9.7km/h 14.0mph /  22.5km/h 56% 0.00in /  0mm 160.0 W/m2
13:06 76.5 °F /  24.7 °C 62.4 °F /  16.9 °C 29.69in /  1005.3hPa East 4.9mph /  7.9km/h 12.0mph /  19.3km/h 62% 0.00in /  0mm 176.0 W/m2
13:12 74.8 °F /  23.8 °C 63.1 °F /  17.3 °C 29.69in /  1005.3hPa ENE 8.1mph /  13km/h 12.0mph /  19.3km/h 67% 0.00in /  0mm 193.0 W/m2
13:18 73.2 °F /  22.9 °C 64.8 °F /  18.2 °C 29.69in /  1005.3hPa East 2.9mph /  4.7km/h 16.0mph /  25.7km/h 75% 0.00in /  0mm 178.0 W/m2
13:24 71.4 °F /  21.9 °C 65.3 °F /  18.5 °C 29.69in /  1005.3hPa NNE 8.1mph /  13km/h 10.0mph /  16.1km/h 81% 0.13in /  3.3mm 155.0 W/m2
13:30 69.4 °F /  20.8 °C 64.0 °F /  17.8 °C 29.69in /  1005.3hPa ENE 6.0mph /  9.7km/h 9.0mph /  14.5km/h 83% 0.14in /  3.56mm 221.0 W/m2
13:36 68.5 °F /  20.3 °C 64.6 °F /  18.1 °C 29.68in /  1005hPa NNE 4.9mph /  7.9km/h 9.0mph /  14.5km/h 87% 0.14in /  3.56mm 297.0 W/m2
13:43 68.4 °F /  20.2 °C 64.4 °F /  18 °C 29.68in /  1005hPa NE 2.0mph /  3.2km/h 7.0mph /  11.3km/h 87% 0.14in /  3.56mm 408.0 W/m2
13:49 68.4 °F /  20.2 °C 64.4 °F /  18 °C 29.68in /  1005hPa NE 4.0mph /  6.4km/h 7.0mph /  11.3km/h 87% 0.14in /  3.56mm 341.0 W/m2
13:55 68.7 °F /  20.4 °C 64.4 °F /  18 °C 29.68in /  1005hPa ESE 0.9mph /  1.4km/h 10.0mph /  16.1km/h 86% 0.14in /  3.56mm 380.0 W/m2
14:01 69.3 °F /  20.7 °C 64.2 °F /  17.9 °C 29.67in /  1004.6hPa NE 4.9mph /  7.9km/h 5.0mph /  8km/h 84% 0.14in /  3.56mm 496.0 W/m2
14:11 70.3 °F /  21.3 °C 64.6 °F /  18.1 °C 29.66in /  1004.3hPa ENE 4.0mph /  6.4km/h 7.0mph /  11.3km/h 82% 0.14in /  3.56mm 735.0 W/m2
14:17 71.2 °F /  21.8 °C 64.0 °F /  17.8 °C 29.66in /  1004.3hPa East 8.9mph /  14.3km/h 11.0mph /  17.7km/h 78% 0.13in /  3.3mm 554.0 W/m2
14:23 71.8 °F /  22.1 °C 64.2 °F /  17.9 °C 29.66in /  1004.3hPa East 2.0mph /  3.2km/h 10.0mph /  16.1km/h 77% 0.00in /  0mm 587.0 W/m2
14:30 72.3 °F /  22.4 °C 63.5 °F /  17.5 °C 29.66in /  1004.3hPa East 8.9mph /  14.3km/h 12.0mph /  19.3km/h 74% 0.00in /  0mm 682.0 W/m2
14:36 73.0 °F /  22.8 °C 64.2 °F /  17.9 °C 29.65in /  1003.9hPa East 6.9mph /  11.1km/h 11.0mph /  17.7km/h 74% 0.00in /  0mm 1078.0 W/m2
14:42 73.8 °F /  23.2 °C 65.3 °F /  18.5 °C 29.65in /  1003.9hPa SSE 0.9mph /  1.4km/h 6.0mph /  9.7km/h 75% 0.00in /  0mm 1297.0 W/m2
14:48 74.7 °F /  23.7 °C 63.9 °F /  17.7 °C 29.65in /  1003.9hPa East 2.9mph /  4.7km/h 9.0mph /  14.5km/h 69% 0.00in /  0mm 515.0 W/m2
14:54 75.0 °F /  23.9 °C 64.9 °F /  18.3 °C 29.65in /  1003.9hPa NE 6.9mph /  11.1km/h 7.0mph /  11.3km/h 71% 0.00in /  0mm 592.0 W/m2
15:00 75.6 °F /  24.2 °C 63.3 °F /  17.4 °C 29.65in /  1003.9hPa ENE 8.9mph /  14.3km/h 9.0mph /  14.5km/h 66% 0.00in /  0mm 568.0 W/m2
15:06 76.3 °F /  24.6 °C 64.0 °F /  17.8 °C 29.65in /  1003.9hPa NNE 0.9mph /  1.4km/h 10.0mph /  16.1km/h 66% 0.00in /  0mm 715.0 W/m2
15:12 76.8 °F /  24.9 °C 63.3 °F /  17.4 °C 29.65in /  1003.9hPa NNE 4.9mph /  7.9km/h 9.0mph /  14.5km/h 63% 0.00in /  0mm 378.0 W/m2
15:18 76.5 °F /  24.7 °C 63.3 °F /  17.4 °C 29.66in /  1004.3hPa SE 4.9mph /  7.9km/h 7.0mph /  11.3km/h 64% 0.00in /  0mm 332.0 W/m2
15:24 75.9 °F /  24.4 °C 63.3 °F /  17.4 °C 29.66in /  1004.3hPa SE 4.9mph /  7.9km/h 7.0mph /  11.3km/h 65% 0.00in /  0mm 434.0 W/m2
15:31 75.9 °F /  24.4 °C 62.4 °F /  16.9 °C 29.66in /  1004.3hPa ENE 6.0mph /  9.7km/h 10.0mph /  16.1km/h 63% 0.00in /  0mm 330.0 W/m2
15:38 75.9 °F /  24.4 °C 62.4 °F /  16.9 °C 29.67in /  1004.6hPa Calm   4.0mph /  6.4km/h 63% 0.00in /  0mm 287.0 W/m2
15:43 76.3 °F /  24.6 °C 62.2 °F /  16.8 °C 29.66in /  1004.3hPa ENE 2.9mph /  4.7km/h 7.0mph /  11.3km/h 62% 0.00in /  0mm 559.0 W/m2
15:49 77.4 °F /  25.2 °C 61.3 °F /  16.3 °C 29.66in /  1004.3hPa East 2.0mph /  3.2km/h 9.0mph /  14.5km/h 58% 0.00in /  0mm 960.0 W/m2
15:55 78.3 °F /  25.7 °C 61.7 °F /  16.5 °C 29.66in /  1004.3hPa SE 4.0mph /  6.4km/h 7.0mph /  11.3km/h 57% 0.00in /  0mm 278.0 W/m2
16:01 78.3 °F /  25.7 °C 61.3 °F /  16.3 °C 29.66in /  1004.3hPa SE 2.9mph /  4.7km/h 9.0mph /  14.5km/h 56% 0.00in /  0mm 190.0 W/m2
16:07 77.7 °F /  25.4 °C 60.3 °F /  15.7 °C 29.66in /  1004.3hPa ESE 4.0mph /  6.4km/h 7.0mph /  11.3km/h 55% 0.00in /  0mm 176.0 W/m2
16:13 77.4 °F /  25.2 °C 60.4 °F /  15.8 °C 29.66in /  1004.3hPa Calm   7.0mph /  11.3km/h 56% 0.00in /  0mm 137.0 W/m2
16:20 77.0 °F /  25 °C 61.2 °F /  16.2 °C 29.66in /  1004.3hPa ESE 0.9mph /  1.4km/h 6.0mph /  9.7km/h 58% 0.00in /  0mm 118.0 W/m2
16:26 76.8 °F /  24.9 °C 61.3 °F /  16.3 °C 29.66in /  1004.3hPa East 2.9mph /  4.7km/h 7.0mph /  11.3km/h 59% 0.00in /  0mm 120.0 W/m2
16:32 76.5 °F /  24.7 °C 61.5 °F /  16.4 °C 29.66in /  1004.3hPa NE 0.9mph /  1.4km/h 9.0mph /  14.5km/h 60% 0.00in /  0mm 113.0 W/m2
16:38 75.9 °F /  24.4 °C 62.8 °F /  17.1 °C 29.66in /  1004.3hPa NNE 4.0mph /  6.4km/h 5.0mph /  8km/h 64% 0.00in /  0mm 128.0 W/m2
16:44 75.6 °F /  24.2 °C 63.3 °F /  17.4 °C 29.66in /  1004.3hPa Calm   2.0mph /  3.2km/h 66% 0.00in /  0mm 158.0 W/m2
16:50 75.2 °F /  24 °C 63.1 °F /  17.3 °C 29.66in /  1004.3hPa Calm   2.0mph /  3.2km/h 66% 0.00in /  0mm 174.0 W/m2
16:56 75.0 °F /  23.9 °C 62.4 °F /  16.9 °C 29.66in /  1004.3hPa SE 2.0mph /  3.2km/h 6.0mph /  9.7km/h 65% 0.00in /  0mm 172.0 W/m2
17:03 75.0 °F /  23.9 °C 62.1 °F /  16.7 °C 29.66in /  1004.3hPa SE 2.0mph /  3.2km/h 5.0mph /  8km/h 64% 0.00in /  0mm 127.0 W/m2
17:09 74.8 °F /  23.8 °C 62.2 °F /  16.8 °C 29.66in /  1004.3hPa ESE 0.9mph /  1.4km/h 4.0mph /  6.4km/h 65% 0.00in /  0mm 123.0 W/m2
17:15 74.8 °F /  23.8 °C 61.9 °F /  16.6 °C 29.67in /  1004.6hPa SE 4.9mph /  7.9km/h 5.0mph /  8km/h 64% 0.00in /  0mm 107.0 W/m2
17:21 74.8 °F /  23.8 °C 62.2 °F /  16.8 °C 29.67in /  1004.6hPa ESE 6.9mph /  11.1km/h 7.0mph /  11.3km/h 65% 0.00in /  0mm 98.0 W/m2
17:27 74.7 °F /  23.7 °C 63.9 °F /  17.7 °C 29.67in /  1004.6hPa SE 4.0mph /  6.4km/h 11.0mph /  17.7km/h 69% 0.00in /  0mm 54.0 W/m2
17:33 73.8 °F /  23.2 °C 65.3 °F /  18.5 °C 29.68in /  1005hPa SE 0.9mph /  1.4km/h 8.0mph /  12.9km/h 75% 0.02in /  0.51mm 37.0 W/m2
17:40 72.0 °F /  22.2 °C 64.4 °F /  18 °C 29.68in /  1005hPa Calm   4.0mph /  6.4km/h 77% 0.03in /  0.76mm 30.0 W/m2
17:46 70.9 °F /  21.6 °C 64.4 °F /  18 °C 29.69in /  1005.3hPa Calm   4.0mph /  6.4km/h 80% 0.03in /  0.76mm 33.0 W/m2
17:52 70.2 °F /  21.2 °C 64.8 °F /  18.2 °C 29.68in /  1005hPa SW 4.0mph /  6.4km/h 4.0mph /  6.4km/h 83% 0.04in /  1.02mm 47.0 W/m2
17:58 69.6 °F /  20.9 °C 64.9 °F /  18.3 °C 29.68in /  1005hPa SW 0.9mph /  1.4km/h 3.0mph /  4.8km/h 85% 0.05in /  1.27mm 42.0 W/m2
18:04 69.3 °F /  20.7 °C 64.9 °F /  18.3 °C 29.68in /  1005hPa Calm   1.0mph /  1.6km/h 86% 0.05in /  1.27mm 32.0 W/m2
18:10 69.1 °F /  20.6 °C 65.1 °F /  18.4 °C 29.68in /  1005hPa South 2.0mph /  3.2km/h 4.0mph /  6.4km/h 87% 0.06in /  1.52mm 19.0 W/m2
18:16 69.1 °F /  20.6 °C 65.3 °F /  18.5 °C 29.68in /  1005hPa South 0.9mph /  1.4km/h 3.0mph /  4.8km/h 88% 0.06in /  1.52mm 14.0 W/m2
18:22 68.7 °F /  20.4 °C 64.9 °F /  18.3 °C 29.68in /  1005hPa Calm   5.0mph /  8km/h 88% 0.06in /  1.52mm 11.0 W/m2
18:28 68.5 °F /  20.3 °C 64.8 °F /  18.2 °C 29.69in /  1005.3hPa SSE 0.9mph /  1.4km/h 2.0mph /  3.2km/h 88% 0.06in /  1.52mm 11.0 W/m2
18:34 68.5 °F /  20.3 °C 65.1 °F /  18.4 °C 29.69in /  1005.3hPa Calm   3.0mph /  4.8km/h 89% 0.03in /  0.76mm 12.0 W/m2
18:41 68.4 °F /  20.2 °C 64.9 °F /  18.3 °C 29.68in /  1005hPa Calm   2.0mph /  3.2km/h 89% 0.04in /  1.02mm 12.0 W/m2
18:50 68.4 °F /  20.2 °C 65.3 °F /  18.5 °C 29.68in /  1005hPa Calm   2.0mph /  3.2km/h 90% 0.03in /  0.76mm 14.0 W/m2
19:13 67.8 °F /  19.9 °C 65.1 °F /  18.4 °C 29.68in /  1005hPa Calm     91% 0.02in /  0.51mm 16.0 W/m2
19:20 67.8 °F /  19.9 °C 64.8 °F /  18.2 °C 29.68in /  1005hPa Calm   1.0mph /  1.6km/h 90% 0.02in /  0.51mm 12.0 W/m2
19:26 67.6 °F /  19.8 °C 64.6 °F /  18.1 °C 29.68in /  1005hPa Calm     90% 0.02in /  0.51mm 7.0 W/m2
19:32 67.6 °F /  19.8 °C 64.6 °F /  18.1 °C 29.68in /  1005hPa Calm     90% 0.02in /  0.51mm 0.0 W/m2
19:38 67.6 °F /  19.8 °C 64.6 °F /  18.1 °C 29.68in /  1005hPa Calm   1.0mph /  1.6km/h 90% 0.01in /  0.25mm 0.0 W/m2
19:44 67.8 °F /  19.9 °C 65.1 °F /  18.4 °C 29.69in /  1005.3hPa Calm   2.0mph /  3.2km/h 91% 0.01in /  0.25mm 0.0 W/m2
19:50 67.6 °F /  19.8 °C 64.9 °F /  18.3 °C 29.69in /  1005.3hPa Calm     91% 0.01in /  0.25mm 0.0 W/m2
19:56 67.6 °F /  19.8 °C 64.9 °F /  18.3 °C 29.69in /  1005.3hPa Calm   1.0mph /  1.6km/h 91% 0.00in /  0mm 0.0 W/m2
20:03 67.6 °F /  19.8 °C 64.9 °F /  18.3 °C 29.70in /  1005.6hPa SSE 2.0mph /  3.2km/h 2.0mph /  3.2km/h 91% 0.00in /  0mm 0.0 W/m2
20:09 67.6 °F /  19.8 °C 64.9 °F /  18.3 °C 29.70in /  1005.6hPa Calm   2.0mph /  3.2km/h 91% 0.00in /  0mm 0.0 W/m2
20:15 67.6 °F /  19.8 °C 64.9 °F /  18.3 °C 29.70in /  1005.6hPa SSE 0.9mph /  1.4km/h 3.0mph /  4.8km/h 91% 0.00in /  0mm 0.0 W/m2
20:21 67.5 °F /  19.7 °C 64.4 °F /  18 °C 29.70in /  1005.6hPa SSE 2.0mph /  3.2km/h 3.0mph /  4.8km/h 90% 0.00in /  0mm 0.0 W/m2
20:27 67.3 °F /  19.6 °C 63.7 °F /  17.6 °C 29.71in /  1006hPa ESE 6.0mph /  9.7km/h 9.0mph /  14.5km/h 88% 0.00in /  0mm 0.0 W/m2
20:33 66.7 °F /  19.3 °C 62.8 °F /  17.1 °C 29.71in /  1006hPa ESE 0.9mph /  1.4km/h 8.0mph /  12.9km/h 87% 0.00in /  0mm 0.0 W/m2
20:39 66.6 °F /  19.2 °C 61.9 °F /  16.6 °C 29.72in /  1006.3hPa SSE 8.1mph /  13km/h 8.1mph /  13km/h 85% 0.00in /  0mm 0.0 W/m2
20:45 66.2 °F /  19 °C 61.5 °F /  16.4 °C 29.72in /  1006.3hPa SSE 2.0mph /  3.2km/h 4.0mph /  6.4km/h 85% 0.00in /  0mm 0.0 W/m2
20:51 66.0 °F /  18.9 °C 61.7 °F /  16.5 °C 29.72in /  1006.3hPa ESE 4.9mph /  7.9km/h 7.0mph /  11.3km/h 86% 0.00in /  0mm 0.0 W/m2
20:57 66.0 °F /  18.9 °C 61.7 °F /  16.5 °C 29.73in /  1006.7hPa ESE 0.9mph /  1.4km/h 4.0mph /  6.4km/h 86% 0.00in /  0mm 0.0 W/m2
21:05 65.7 °F /  18.7 °C 60.6 °F /  15.9 °C 29.73in /  1006.7hPa SE 2.9mph /  4.7km/h 5.0mph /  8km/h 84% 0.00in /  0mm 0.0 W/m2
21:11 65.7 °F /  18.7 °C 61.0 °F /  16.1 °C 29.74in /  1007hPa SE 9.0mph /  14.5km/h 9.0mph /  14.5km/h 85% 0.00in /  0mm 0.0 W/m2
21:17 65.8 °F /  18.8 °C 61.5 °F /  16.4 °C 29.74in /  1007hPa ESE 8.1mph /  13km/h 9.0mph /  14.5km/h 86% 0.00in /  0mm 0.0 W/m2
21:23 65.8 °F /  18.8 °C 61.5 °F /  16.4 °C 29.75in /  1007.3hPa South 4.9mph /  7.9km/h 10.0mph /  16.1km/h 86% 0.00in /  0mm 0.0 W/m2
21:29 65.8 °F /  18.8 °C 61.5 °F /  16.4 °C 29.75in /  1007.3hPa South 4.0mph /  6.4km/h 9.0mph /  14.5km/h 86% 0.00in /  0mm 0.0 W/m2
21:35 66.0 °F /  18.9 °C 61.7 °F /  16.5 °C 29.75in /  1007.3hPa SE 2.9mph /  4.7km/h 8.0mph /  12.9km/h 86% 0.00in /  0mm 0.0 W/m2
21:43 66.0 °F /  18.9 °C 61.7 °F /  16.5 °C 29.75in /  1007.3hPa ESE 4.0mph /  6.4km/h 5.0mph /  8km/h 86% 0.00in /  0mm 0.0 W/m2
21:49 66.4 °F /  19.1 °C 62.1 °F /  16.7 °C 29.75in /  1007.3hPa ESE 2.0mph /  3.2km/h 4.0mph /  6.4km/h 86% 0.00in /  0mm 0.0 W/m2
21:58 66.4 °F /  19.1 °C 62.1 °F /  16.7 °C 29.75in /  1007.3hPa East 0.9mph /  1.4km/h 6.0mph /  9.7km/h 86% 0.00in /  0mm 0.0 W/m2
22:04 66.4 °F /  19.1 °C 62.4 °F /  16.9 °C 29.75in /  1007.3hPa Calm   4.0mph /  6.4km/h 87% 0.00in /  0mm 0.0 W/m2
22:12 66.4 °F /  19.1 °C 62.4 °F /  16.9 °C 29.75in /  1007.3hPa SSW 2.9mph /  4.7km/h 12.0mph /  19.3km/h 87% 0.00in /  0mm 0.0 W/m2
22:18 66.4 °F /  19.1 °C 62.4 °F /  16.9 °C 29.75in /  1007.3hPa Calm   9.0mph /  14.5km/h 87% 0.00in /  0mm 0.0 W/m2
22:24 66.4 °F /  19.1 °C 62.4 °F /  16.9 °C 29.75in /  1007.3hPa SE 4.0mph /  6.4km/h 5.0mph /  8km/h 87% 0.00in /  0mm 0.0 W/m2
22:30 66.4 °F /  19.1 °C 62.4 °F /  16.9 °C 29.75in /  1007.3hPa SE 2.9mph /  4.7km/h 5.0mph /  8km/h 87% 0.00in /  0mm 0.0 W/m2
22:36 66.4 °F /  19.1 °C 62.4 °F /  16.9 °C 29.75in /  1007.3hPa SSE 4.0mph /  6.4km/h 8.0mph /  12.9km/h 87% 0.00in /  0mm 0.0 W/m2
22:42 66.2 °F /  19 °C 62.2 °F /  16.8 °C 29.76in /  1007.7hPa ESE 4.0mph /  6.4km/h 6.0mph /  9.7km/h 87% 0.00in /  0mm 0.0 W/m2
22:48 66.2 °F /  19 °C 62.2 °F /  16.8 °C 29.76in /  1007.7hPa South 2.9mph /  4.7km/h 8.0mph /  12.9km/h 87% 0.00in /  0mm 0.0 W/m2
22:54 66.0 °F /  18.9 °C 62.1 °F /  16.7 °C 29.75in /  1007.3hPa SSE 4.0mph /  6.4km/h 7.0mph /  11.3km/h 87% 0.00in /  0mm 0.0 W/m2
23:00 66.0 °F /  18.9 °C 61.7 °F /  16.5 °C 29.75in /  1007.3hPa South 2.0mph /  3.2km/h 2.0mph /  3.2km/h 86% 0.00in /  0mm 0.0 W/m2
23:06 66.0 °F /  18.9 °C 61.7 °F /  16.5 °C 29.75in /  1007.3hPa ESE 2.9mph /  4.7km/h 3.0mph /  4.8km/h 86% 0.00in /  0mm 0.0 W/m2
23:12 66.0 °F /  18.9 °C 61.3 °F /  16.3 °C 29.75in /  1007.3hPa SE 0.9mph /  1.4km/h 2.0mph /  3.2km/h 85% 0.00in /  0mm 0.0 W/m2
23:18 65.8 °F /  18.8 °C 60.8 °F /  16 °C 29.75in /  1007.3hPa SE 0.9mph /  1.4km/h 3.0mph /  4.8km/h 84% 0.00in /  0mm 0.0 W/m2
23:24 65.8 °F /  18.8 °C 60.8 °F /  16 °C 29.75in /  1007.3hPa Calm   1.0mph /  1.6km/h 84% 0.00in /  0mm 0.0 W/m2
23:30 65.8 °F /  18.8 °C 60.8 °F /  16 °C 29.75in /  1007.3hPa North 0.9mph /  1.4km/h 2.0mph /  3.2km/h 84% 0.00in /  0mm 0.0 W/m2
23:36 65.8 °F /  18.8 °C 61.5 °F /  16.4 °C 29.75in /  1007.3hPa Calm   1.0mph /  1.6km/h 86% 0.00in /  0mm 0.0 W/m2
23:43 65.7 °F /  18.7 °C 61.3 °F /  16.3 °C 29.75in /  1007.3hPa Calm     86% 0.00in /  0mm 0.0 W/m2
23:49 65.7 °F /  18.7 °C 61.7 °F /  16.5 °C 29.75in /  1007.3hPa Calm     87% 0.00in /  0mm 0.0 W/m2
23:55 65.5 °F /  18.6 °C 61.2 °F /  16.2 °C 29.75in /  1007.3hPa SE 0.9mph /  1.4km/h 4.0mph /  6.4km/h 86% 0.00in /  0mm 0.0 W/m2
Olympia, Windhoek, Namibia
Compliments of Weather Underground - 3 mb